Foios, Spain
Current Conditions -  °F | °C
As of 6:30 AM on Sunday 23 Nov 2014 (Local Time) from LEVC Reporting Station
Scattered Clouds Scattered Clouds  
Wind Chill: 57°   Ceiling: Unl
Heat Index: 57°   Visibility: 4mi
Dew Point: 55°   Wind: 1mph
Humidity: 94%   Direction: NA
Pressure: 30"   Gusts: NA
Location:  39.53°N, 0.35°W
Report Text: LEVC 230530Z VRB01KT 6000 FEW020 SCT045 14/13 Q1016 NOSIG
Loading
Personal Weather Stations






























Interactive Weather Map New forecast layout! Learn more

10-Day Weather Forecast

Advertisements
Track Severe Weather on mobile